Time;durP1;ratioP1;P1;durP2;ratioP2;P2;SDS_P1;SDS_P2;PMS_P1;PMS_P2;Temp;Humidity;BMP_temperature;BMP_pressure;BME280_temperature;BME280_humidity;BME280_pressure;Samples;Min_cycle;Max_cycle;Signal;HPM_P1;HPM_P2
2022/06/08 00:00:36;;;;;;;3.85;1.70;;;;;;;21.92;43.43;98322.59;4992708;28;20035;-72
2022/06/08 00:03:05;;;;;;;4.28;1.60;;;;;;;21.98;43.46;98335.09;4994102;28;20038;-73
2022/06/08 00:05:30;;;;;;;2.72;1.80;;;;;;;21.97;42.79;98336.94;4993783;28;20030;-73
2022/06/08 00:07:56;;;;;;;3.40;1.40;;;;;;;21.94;42.94;98333.88;4976648;28;20045;-72
2022/06/08 00:10:22;;;;;;;6.18;1.65;;;;;;;21.91;42.55;98323.63;4977034;28;20042;-73
2022/06/08 00:12:47;;;;;;;6.78;2.10;;;;;;;21.91;42.77;98323.63;4994716;28;20065;-72
2022/06/08 00:15:13;;;;;;;2.83;1.73;;;;;;;21.92;43.00;98322.59;4993126;28;20038;-72
2022/06/08 00:17:39;;;;;;;5.30;1.73;;;;;;;21.89;43.40;98321.19;4994633;28;20054;-73
2022/06/08 00:20:05;;;;;;;3.90;1.40;;;;;;;21.82;43.76;98321.16;4993206;28;20449;-72
2022/06/08 00:22:30;;;;;;;4.68;1.65;;;;;;;21.79;44.03;98323.38;4993647;28;20026;-72
2022/06/08 00:24:56;;;;;;;2.67;1.52;;;;;;;21.77;44.05;98325.44;4994583;28;20061;-72
2022/06/08 00:27:21;;;;;;;3.28;1.73;;;;;;;21.74;43.95;98321.31;4992791;28;20529;-72
2022/06/08 00:29:47;;;;;;;3.10;1.70;;;;;;;21.74;44.16;98307.22;4993125;28;20042;-72
2022/06/08 00:32:12;;;;;;;2.65;1.70;;;;;;;21.68;44.45;98312.34;4992801;28;20505;-73
2022/06/08 00:34:38;;;;;;;6.13;1.55;;;;;;;21.61;44.40;98300.84;4992477;28;20042;-73
2022/06/08 00:37:04;;;;;;;4.00;1.85;;;;;;;21.61;44.57;98308.81;4993218;28;20104;-72
2022/06/08 00:39:29;;;;;;;3.17;1.40;;;;;;;21.56;44.88;98308.59;4976416;28;20100;-72
2022/06/08 00:42:00;;;;;;;4.28;1.50;;;;;;;21.52;45.16;98307.34;4994076;28;20035;-72
2022/06/08 00:44:37;;;;;;;3.30;1.70;;;;;;;21.51;45.25;98305.72;4976561;28;20031;-72
2022/06/08 00:47:03;;;;;;;2.97;1.58;;;;;;;21.48;45.04;98301.63;4992865;28;20072;-72
2022/06/08 00:49:51;;;;;;;3.45;1.77;;;;;;;21.46;45.19;98303.63;4993086;28;20114;-72
2022/06/08 00:52:16;;;;;;;2.45;1.50;;;;;;;21.42;45.51;98309.53;4993085;28;20100;-72
2022/06/08 00:54:45;;;;;;;4.72;1.67;;;;;;;21.35;45.47;98301.53;4992826;28;20482;-73
2022/06/08 00:57:13;;;;;;;5.28;1.73;;;;;;;21.41;45.45;98307.88;4992602;28;20062;-73
2022/06/08 00:59:41;;;;;;;6.32;1.48;;;;;;;21.38;45.45;98305.63;4992557;28;20026;-72
2022/06/08 01:02:07;;;;;;;4.13;1.80;;;;;;;21.34;45.70;98307.84;4977092;28;20048;-72
2022/06/08 01:04:34;;;;;;;2.80;1.50;;;;;;;21.33;45.65;98308.88;4992552;28;20030;-72
2022/06/08 01:06:59;;;;;;;2.50;1.50;;;;;;;21.27;45.61;98294.56;4993787;28;20034;-72
2022/06/08 01:09:29;;;;;;;5.70;1.67;;;;;;;21.28;45.58;98311.28;4976226;28;20037;-73
2022/06/08 01:11:57;;;;;;;4.47;1.80;;;;;;;21.27;45.75;98299.06;4992471;28;20041;-72
2022/06/08 01:14:23;;;;;;;5.57;1.70;;;;;;;21.31;46.08;98303.75;4992295;28;20042;-72
2022/06/08 01:17:30;;;;;;;4.85;1.80;;;;;;;21.25;46.06;98293.94;4992678;28;20474;-72
2022/06/08 01:19:56;;;;;;;4.10;1.70;;;;;;;21.25;46.25;98296.59;4972152;28;20062;-72
2022/06/08 01:22:21;;;;;;;2.78;1.60;;;;;;;21.22;46.36;98293.50;4972025;28;20065;-72
2022/06/08 01:24:48;;;;;;;3.55;1.65;;;;;;;21.27;46.59;98305.19;4939895;28;20047;-72
2022/06/08 01:27:44;;;;;;;7.03;2.00;;;;;;;21.26;46.65;98303.53;4955461;28;20098;-72
2022/06/08 01:30:26;;;;;;;3.78;1.58;;;;;;;21.24;46.71;98304.75;4971830;28;20027;-72
2022/06/08 01:33:24;;;;;;;3.15;1.88;;;;;;;21.23;46.82;98303.91;4971620;28;20422;-72
2022/06/08 01:36:13;;;;;;;3.38;1.80;;;;;;;21.24;46.84;98304.75;4972179;28;20532;-72
2022/06/08 01:38:44;;;;;;;4.90;1.98;;;;;;;21.23;46.79;98300.47;4955323;28;20039;-72
2022/06/08 01:41:14;;;;;;;6.53;2.00;;;;;;;21.22;47.06;98297.00;4955565;28;20034;-72
2022/06/08 01:43:53;;;;;;;4.90;1.80;;;;;;;21.24;47.19;98281.69;4972037;28;20053;-72
2022/06/08 01:46:33;;;;;;;4.00;1.80;;;;;;;21.28;47.29;98276.78;4940717;28;20614;-72
2022/06/08 01:49:31;;;;;;;3.28;1.60;;;;;;;21.32;47.20;98278.03;4955917;28;20074;-72
2022/06/08 01:52:19;;;;;;;2.55;1.80;;;;;;;21.33;47.57;98283.16;4993612;28;20038;-72
2022/06/08 01:54:57;;;;;;;8.57;1.75;;;;;;;21.36;47.58;98292.53;4992381;28;20033;-72
2022/06/08 01:57:26;;;;;;;;;;;;;;;21.39;47.82;98296.66;4992326;28;20030;-72
2022/06/08 02:00:13;;;;;;;4.15;1.80;;;;;;;21.37;48.48;98282.75;4992928;28;19917;-72
2022/06/08 02:02:57;;;;;;;3.03;1.70;;;;;;;21.38;48.70;98287.88;4976404;28;20050;-72
2022/06/08 02:05:48;;;;;;;4.07;1.73;;;;;;;21.40;48.35;98290.34;4993106;28;20061;-72
2022/06/08 02:08:38;;;;;;;3.88;1.80;;;;;;;21.38;48.59;98287.03;4983770;28;20041;-72
2022/06/08 02:11:09;;;;;;;2.83;1.90;;;;;;;21.40;48.50;98288.50;4991916;28;20085;-72
2022/06/08 02:13:40;;;;;;;3.30;2.00;;;;;;;21.40;48.03;98283.19;4991951;28;20058;-72
2022/06/08 02:16:13;;;;;;;3.88;1.63;;;;;;;21.36;48.18;98279.28;4991714;28;20481;-72
2022/06/08 02:18:42;;;;;;;3.17;1.60;;;;;;;21.40;48.07;98282.38;4975285;28;20084;-72
2022/06/08 02:21:11;;;;;;;4.43;1.73;;;;;;;21.42;48.01;98289.09;4975353;28;20031;-73
2022/06/08 02:23:51;;;;;;;4.32;1.80;;;;;;;21.42;48.07;98283.78;4992737;28;20027;-72
2022/06/08 02:26:32;;;;;;;3.35;1.90;;;;;;;21.42;48.12;98283.78;4995756;28;20045;-72
2022/06/08 02:29:04;;;;;;;5.90;1.73;;;;;;;21.42;48.30;98288.28;4995698;28;20073;-72
2022/06/08 02:31:34;;;;;;;4.88;1.80;;;;;;;21.41;48.34;98282.19;4979678;28;20129;-72
2022/06/08 02:34:28;;;;;;;4.10;1.95;;;;;;;21.40;48.19;98279.72;4995234;28;20030;-72
2022/06/08 02:37:12;;;;;;;5.15;1.98;;;;;;;21.37;48.09;98288.88;4995663;28;20073;-72
2022/06/08 02:40:11;;;;;;;4.07;1.92;;;;;;;21.35;48.30;98272.34;4995628;28;20022;-72
2022/06/08 02:42:43;;;;;;;5.63;1.92;;;;;;;21.33;48.55;98279.66;4974818;28;20065;-72
2022/06/08 02:45:12;;;;;;;3.80;2.00;;;;;;;21.32;48.58;98278.03;4944900;28;20142;-72
2022/06/08 02:47:38;;;;;;;2.53;1.73;;;;;;;21.34;48.51;98273.34;4936136;29;20036;-72
2022/06/08 02:50:10;;;;;;;3.17;1.80;;;;;;;21.38;48.46;98271.09;4936143;29;20535;-74
2022/06/08 02:52:36;;;;;;;2.70;1.70;;;;;;;21.40;48.59;98267.25;4936435;29;20500;-72
2022/06/08 02:55:04;;;;;;;3.30;1.90;;;;;;;21.37;48.73;98267.66;4935852;29;20044;-72
2022/06/08 02:57:42;;;;;;;2.30;1.80;;;;;;;21.39;48.59;98267.44;4936234;29;20059;-72
2022/06/08 03:00:10;;;;;;;3.17;1.92;;;;;;;21.44;48.77;98279.13;4936135;29;20043;-73
2022/06/08 03:02:55;;;;;;;3.65;1.85;;;;;;;21.46;48.68;98282.38;4935990;29;20036;-72
2022/06/08 03:05:23;;;;;;;3.35;2.00;;;;;;;21.54;48.44;98288.56;4936314;29;20054;-72
2022/06/08 03:08:01;;;;;;;3.58;1.98;;;;;;;21.59;48.18;98291.47;4936061;29;20035;-72
2022/06/08 03:10:30;;;;;;;4.93;1.80;;;;;;;21.64;48.43;98289.03;4936056;29;20039;-72
2022/06/08 03:13:26;;;;;;;3.03;1.95;;;;;;;21.68;48.40;98287.63;4935781;29;20404;-72
2022/06/08 03:16:02;;;;;;;3.60;2.33;;;;;;;21.70;48.23;98285.56;4935979;29;20118;-72
2022/06/08 03:18:28;;;;;;;4.65;1.90;;;;;;;22.16;47.13;98300.78;4940362;28;20035;-72
2022/06/08 03:20:54;;;;;;;4.32;2.00;;;;;;;22.30;46.67;98301.66;4976645;28;20042;-73
2022/06/08 03:23:19;;;;;;;5.47;2.20;;;;;;;22.49;46.22;98304.53;4959001;28;20528;-73
2022/06/08 03:25:46;;;;;;;8.10;2.13;;;;;;;23.09;44.79;98307.16;4959206;28;20042;-73
2022/06/08 03:28:14;;;;;;;5.32;2.30;;;;;;;23.59;43.72;98311.91;4974813;28;20051;-72
2022/06/08 03:30:40;;;;;;;5.25;1.98;;;;;;;24.09;42.43;98306.75;4974122;28;20038;-72
2022/06/08 03:33:06;;;;;;;3.92;1.80;;;;;;;24.55;41.10;98318.13;4978131;28;20457;-72
2022/06/08 03:35:31;;;;;;;5.97;2.00;;;;;;;24.95;40.02;98316.97;4993555;28;20508;-72
2022/06/08 03:37:59;;;;;;;3.22;1.73;;;;;;;25.11;39.57;98316.38;4995060;28;20053;-73
2022/06/08 03:40:25;;;;;;;3.03;1.80;;;;;;;25.73;37.83;98315.50;4978499;28;20601;-72
2022/06/08 03:42:50;;;;;;;6.18;2.13;;;;;;;26.20;37.07;98314.91;4994154;28;20080;-73
2022/06/08 03:45:16;;;;;;;5.07;1.70;;;;;;;26.53;36.19;98309.84;4993579;28;20042;-73
2022/06/08 03:47:43;;;;;;;3.42;1.58;;;;;;;25.82;37.06;98308.81;4993770;28;20046;-73
2022/06/08 03:50:10;;;;;;;2.58;1.63;;;;;;;25.51;36.75;98313.31;4961267;28;20043;-73
2022/06/08 03:52:38;;;;;;;3.08;1.60;;;;;;;25.72;36.66;98308.53;4978125;28;20525;-73
2022/06/08 03:55:05;;;;;;;2.13;1.50;;;;;;;25.59;37.18;98315.69;4977758;28;20117;-73
2022/06/08 03:57:31;;;;;;;6.30;1.90;;;;;;;25.86;36.74;98319.88;4993858;28;20129;-73
2022/06/08 03:59:56;;;;;;;2.85;1.50;;;;;;;25.94;36.13;98325.72;4977745;28;20478;-73
2022/06/08 04:02:23;;;;;;;3.60;1.40;;;;;;;26.72;35.11;98323.16;4977835;28;20122;-73
2022/06/08 04:04:48;;;;;;;2.92;1.52;;;;;;;27.71;33.48;98316.19;4977908;28;20034;-73
2022/06/08 04:07:14;;;;;;;9.25;1.70;;;;;;;27.72;33.33;98313.25;4994950;28;20053;-72
2022/06/08 04:09:40;;;;;;;2.35;1.50;;;;;;;27.23;34.09;98318.94;4977353;28;20061;-73
2022/06/08 04:12:05;;;;;;;3.22;1.48;;;;;;;26.87;35.14;98320.03;4993595;28;20050;-73
2022/06/08 04:14:31;;;;;;;5.78;1.63;;;;;;;27.78;34.32;98303.44;4959534;28;20568;-73
2022/06/08 04:16:56;;;;;;;7.30;1.70;;;;;;;29.01;32.44;98310.84;4993958;28;20030;-73
2022/06/08 04:19:22;;;;;;;4.07;1.90;;;;;;;29.77;31.34;98304.00;4993447;28;20405;-73
2022/06/08 04:21:47;;;;;;;6.88;1.73;;;;;;;30.38;30.13;98306.53;4977933;28;20045;-73
2022/06/08 04:24:14;;;;;;;2.60;1.52;;;;;;;30.98;29.44;98312.63;4977506;28;20093;-74
2022/06/08 04:26:40;;;;;;;3.85;1.98;;;;;;;31.81;28.24;98297.59;4993277;28;20037;-74
2022/06/08 04:29:06;;;;;;;4.05;1.75;;;;;;;32.55;27.08;98309.03;4994290;28;20058;-71
2022/06/08 04:31:34;;;;;;;5.63;1.30;;;;;;;33.25;26.04;98300.28;4979339;28;20038;-77
2022/06/08 04:34:00;;;;;;;4.65;1.50;;;;;;;34.27;24.81;98308.97;4994540;28;20031;-75
2022/06/08 04:36:25;;;;;;;6.13;1.60;;;;;;;35.21;23.57;98317.81;4960972;28;20038;-76
2022/06/08 04:38:51;;;;;;;3.20;1.48;;;;;;;36.00;24.24;98320.09;4994366;28;20070;-83
2022/06/08 04:41:16;;;;;;;6.03;1.50;;;;;;;36.72;23.88;98311.59;4961042;28;20042;-81
2022/06/08 04:43:42;;;;;;;3.97;1.55;;;;;;;37.34;23.26;98309.63;4993034;28;20061;-81
2022/06/08 04:46:08;;;;;;;4.20;1.52;;;;;;;37.98;22.56;98310.44;4992505;28;20473;-81
2022/06/08 04:48:33;;;;;;;4.65;1.50;;;;;;;38.53;22.12;98308.59;4976835;28;20030;-81
2022/06/08 04:50:59;;;;;;;5.25;1.40;;;;;;;39.15;21.71;98305.06;4992594;28;20046;-77
2022/06/08 04:53:24;;;;;;;3.97;1.50;;;;;;;39.67;21.16;98303.59;4993131;28;20038;-77
2022/06/08 04:55:50;;;;;;;5.07;1.35;;;;;;;39.61;21.51;98302.94;4994104;28;20038;-79
2022/06/08 04:58:16;;;;;;;4.80;1.48;;;;;;;40.20;20.99;98305.22;4994209;28;20034;-80
2022/06/08 05:00:41;;;;;;;5.93;1.73;;;;;;;40.66;20.57;98300.94;4994127;28;20026;-78
2022/06/08 05:03:07;;;;;;;4.60;1.50;;;;;;;41.19;20.09;98303.47;4993995;28;20030;-78
2022/06/08 05:05:35;;;;;;;6.07;1.75;;;;;;;41.66;18.82;98299.81;4993909;28;20030;-82
2022/06/08 05:08:00;;;;;;;8.23;2.00;;;;;;;42.12;18.55;98306.22;4992731;28;20136;-80
2022/06/08 05:10:27;;;;;;;8.90;2.22;;;;;;;42.55;17.90;98302.28;4992352;28;20090;-81
2022/06/08 05:12:53;;;;;;;5.63;1.48;;;;;;;42.90;17.19;98301.84;4991300;28;20022;-80
2022/06/08 05:15:24;;;;;;;5.22;1.88;;;;;;;43.20;17.13;98309.88;4992642;28;20038;-79
2022/06/08 05:17:50;;;;;;;8.18;1.77;;;;;;;43.54;16.85;98305.84;4993553;28;20405;-78
2022/06/08 05:20:16;;;;;;;3.73;1.47;;;;;;;43.91;16.86;98313.22;4992347;28;20418;-78
2022/06/08 05:22:43;;;;;;;4.88;1.48;;;;;;;44.09;16.69;98317.28;4992590;28;20033;-79
2022/06/08 05:25:11;;;;;;;5.05;1.38;;;;;;;44.26;15.57;98318.91;4993625;28;20117;-79
2022/06/08 05:27:38;;;;;;;3.30;1.38;;;;;;;44.52;16.40;98311.31;4959759;28;20050;-79
2022/06/08 05:30:05;;;;;;;5.35;1.42;;;;;;;44.78;16.14;98324.63;4993691;28;20046;-78
2022/06/08 05:32:30;;;;;;;4.55;1.48;;;;;;;45.08;14.93;98327.72;4992352;28;20517;-78
2022/06/08 05:34:56;;;;;;;4.90;1.37;;;;;;;45.38;14.77;98332.78;4993446;28;20035;-78
2022/06/08 05:37:21;;;;;;;2.83;1.37;;;;;;;45.57;15.12;98331.22;4992224;28;20038;-78
2022/06/08 05:39:47;;;;;;;9.43;1.47;;;;;;;45.63;14.22;98336.06;4993338;28;20041;-78
2022/06/08 05:42:12;;;;;;;5.30;1.23;;;;;;;45.79;14.51;98347.06;4991846;28;20042;-78
2022/06/08 05:44:38;;;;;;;2.50;1.30;;;;;;;45.94;14.95;98347.38;4992030;28;20041;-78
2022/06/08 05:47:03;;;;;;;3.07;1.27;;;;;;;44.42;15.98;98346.50;4992903;28;20148;-78
2022/06/08 05:49:33;;;;;;;3.63;1.23;;;;;;;42.37;18.00;98341.97;4993688;28;20385;-78
2022/06/08 05:51:59;;;;;;;4.20;1.58;;;;;;;40.84;18.04;98339.97;4993191;28;20069;-79
2022/06/08 05:54:24;;;;;;;6.00;1.45;;;;;;;39.50;21.38;98337.09;4992924;28;20401;-79
2022/06/08 05:56:49;;;;;;;6.15;1.50;;;;;;;38.40;21.36;98347.63;4991720;28;20038;-77
2022/06/08 05:59:15;;;;;;;6.70;1.73;;;;;;;37.43;22.42;98346.75;4991528;28;20038;-78
2022/06/08 06:01:40;;;;;;;8.93;1.83;;;;;;;36.58;23.93;98333.31;4992988;28;20478;-78
2022/06/08 06:04:07;;;;;;;8.27;1.88;;;;;;;35.81;24.37;98350.75;4992289;28;20030;-78
2022/06/08 06:06:33;;;;;;;5.30;1.70;;;;;;;35.49;25.03;98357.66;4991921;28;20085;-77
2022/06/08 06:08:58;;;;;;;8.55;2.00;;;;;;;35.10;25.22;98355.09;4991700;28;20105;-78
2022/06/08 06:11:24;;;;;;;3.70;1.83;;;;;;;34.87;26.18;98352.09;4993140;28;20113;-78
2022/06/08 06:13:49;;;;;;;5.68;1.92;;;;;;;35.27;25.27;98354.69;4975679;28;20040;-78
2022/06/08 06:16:15;;;;;;;5.53;1.95;;;;;;;34.57;26.97;98342.28;4974662;28;20053;-79
2022/06/08 06:18:41;;;;;;;5.75;1.85;;;;;;;34.09;26.39;98351.00;4991571;28;20023;-79
2022/06/08 06:21:06;;;;;;;9.48;1.95;;;;;;;33.60;26.83;98351.81;4975499;28;20043;-77
2022/06/08 06:23:32;;;;;;;5.68;2.05;;;;;;;33.06;27.76;98345.19;4991883;28;20053;-78
2022/06/08 06:25:58;;;;;;;5.20;2.05;;;;;;;32.76;28.91;98346.88;4992964;28;20038;-77
2022/06/08 06:28:24;;;;;;;3.92;1.88;;;;;;;32.56;29.90;98340.38;4992913;28;20478;-77
2022/06/08 06:30:49;;;;;;;6.70;2.10;;;;;;;32.31;29.38;98346.56;4993085;28;20041;-78
2022/06/08 06:33:15;;;;;;;4.20;2.30;;;;;;;32.10;30.22;98351.94;4991914;28;20034;-78
2022/06/08 06:35:41;;;;;;;4.93;2.22;;;;;;;31.87;30.36;98355.09;4991659;28;20490;-77
2022/06/08 06:38:07;;;;;;;6.78;2.30;;;;;;;31.69;30.98;98350.97;4991495;28;20066;-77
2022/06/08 06:40:33;;;;;;;5.15;1.90;;;;;;;31.50;31.17;98340.66;4959159;28;20065;-77
2022/06/08 06:42:59;;;;;;;6.22;2.22;;;;;;;31.57;31.40;98351.22;4991364;28;20034;-77
2022/06/08 06:45:24;;;;;;;5.18;2.55;;;;;;;31.88;30.29;98337.81;4975311;28;20062;-78
2022/06/08 06:47:50;;;;;;;4.80;2.88;;;;;;;31.74;30.79;98348.31;4991768;28;20038;-78
2022/06/08 06:50:16;;;;;;;5.40;3.10;;;;;;;31.59;30.89;98345.56;4991592;28;20042;-78
2022/06/08 06:52:41;;;;;;;7.45;2.80;;;;;;;31.51;30.63;98336.88;4958894;28;20560;-79
2022/06/08 06:55:07;;;;;;;7.05;2.60;;;;;;;31.46;31.74;98341.44;4991571;28;20035;-77
2022/06/08 06:57:33;;;;;;;7.60;3.08;;;;;;;31.27;31.80;98339.19;4992565;28;20026;-77
2022/06/08 06:59:58;;;;;;;4.47;2.90;;;;;;;31.15;32.95;98333.19;4991391;28;20039;-77
2022/06/08 07:02:24;;;;;;;4.80;2.85;;;;;;;31.11;31.97;98332.91;4975149;28;20050;-77
2022/06/08 07:04:50;;;;;;;7.40;2.97;;;;;;;32.39;29.52;98327.13;4992507;28;20521;-77
2022/06/08 07:07:16;;;;;;;6.35;2.55;;;;;;;33.58;28.09;98316.91;4991074;28;20054;-78
2022/06/08 07:09:42;;;;;;;4.10;2.53;;;;;;;33.91;27.79;98317.28;4976227;28;20069;-78
2022/06/08 07:12:08;;;;;;;5.93;2.58;;;;;;;34.52;26.56;98318.78;4995032;28;20031;-77
2022/06/08 07:14:34;;;;;;;5.00;2.70;;;;;;;35.52;25.36;98323.72;4995989;28;20030;-77
2022/06/08 07:16:59;;;;;;;6.80;2.60;;;;;;;36.21;24.82;98321.41;4978291;28;20057;-77
2022/06/08 07:19:25;;;;;;;9.10;2.17;;;;;;;36.75;23.62;98313.75;4994703;28;20018;-78
2022/06/08 07:21:50;;;;;;;7.30;2.70;;;;;;;37.27;22.69;98305.44;4994790;28;20030;-77
2022/06/08 07:24:21;;;;;;;4.63;2.47;;;;;;;37.71;21.81;98303.16;4995862;28;20058;-77
2022/06/08 07:26:46;;;;;;;5.20;2.10;;;;;;;38.05;21.37;98301.84;4994714;28;20061;-77
2022/06/08 07:29:13;;;;;;;5.32;2.25;;;;;;;38.39;20.91;98305.16;4996288;28;20085;-78
2022/06/08 07:31:38;;;;;;;27.67;2.58;;;;;;;38.66;20.46;98290.56;4994538;28;20516;-78
2022/06/08 07:34:04;;;;;;;3.97;2.08;;;;;;;38.86;21.03;98295.47;4994399;28;20062;-79
2022/06/08 07:36:29;;;;;;;4.05;2.03;;;;;;;38.99;20.46;98299.19;4994631;28;20038;-78
2022/06/08 07:38:56;;;;;;;4.50;2.05;;;;;;;39.08;20.04;98288.34;4995324;28;20046;-78
2022/06/08 07:41:22;;;;;;;5.03;2.10;;;;;;;39.22;20.12;98285.47;4993857;28;20038;-77
2022/06/08 07:43:48;;;;;;;6.15;2.08;;;;;;;39.41;20.43;98287.94;4995453;28;20038;-77
2022/06/08 07:46:13;;;;;;;5.35;2.08;;;;;;;39.47;20.93;98288.59;4995473;28;20022;-78
2022/06/08 07:51:23;;;;;;;9.05;2.65;;;;;;;39.59;19.11;98283.34;4995243;28;20073;-77
2022/06/08 07:53:48;;;;;;;4.15;2.08;;;;;;;39.61;19.14;98289.28;4995004;28;20030;-78
2022/06/08 07:56:14;;;;;;;4.38;2.15;;;;;;;39.52;19.43;98280.22;4994199;28;20042;-78
2022/06/08 07:58:39;;;;;;;5.43;2.03;;;;;;;39.38;19.73;98283.94;4978233;28;20092;-79
2022/06/08 08:01:06;;;;;;;3.97;1.92;;;;;;;38.68;20.20;98271.94;4995122;28;20030;-78
2022/06/08 08:03:31;;;;;;;4.37;2.20;;;;;;;38.63;20.60;98272.88;4994159;28;20470;-78
2022/06/08 08:05:57;;;;;;;4.18;2.05;;;;;;;38.17;20.92;98282.22;4994002;28;20089;-77
2022/06/08 08:08:22;;;;;;;4.65;1.80;;;;;;;37.64;21.49;98278.25;4977720;28;20417;-77
2022/06/08 08:10:49;;;;;;;4.32;2.20;;;;;;;37.50;21.90;98275.56;4994995;28;20034;-78
2022/06/08 08:13:14;;;;;;;4.10;1.90;;;;;;;36.93;22.33;98276.69;4994015;28;20080;-77
2022/06/08 08:15:40;;;;;;;6.63;2.20;;;;;;;36.64;22.94;98279.66;4993534;28;20417;-78
2022/06/08 08:18:06;;;;;;;5.38;2.38;;;;;;;36.11;22.85;98267.22;4993736;28;20022;-79
2022/06/08 08:20:32;;;;;;;5.35;2.20;;;;;;;35.74;23.35;98268.03;4960780;28;20054;-78
2022/06/08 08:22:58;;;;;;;4.78;2.20;;;;;;;35.48;23.58;98280.06;4992769;28;20101;-77
2022/06/08 08:25:24;;;;;;;3.53;2.00;;;;;;;35.35;23.77;98277.28;4977308;28;20469;-76
2022/06/08 08:27:49;;;;;;;4.60;1.98;;;;;;;35.41;24.06;98268.75;4993832;28;20043;-76
2022/06/08 08:30:16;;;;;;;5.38;2.03;;;;;;;35.19;23.83;98273.88;4977175;28;20444;-78
2022/06/08 08:32:42;;;;;;;6.10;2.20;;;;;;;34.99;24.40;98269.53;4993492;28;20044;-78
2022/06/08 08:35:08;;;;;;;4.22;1.88;;;;;;;35.28;23.60;98262.16;4993360;28;20034;-78
2022/06/08 08:37:33;;;;;;;6.45;2.25;;;;;;;35.64;23.55;98269.00;4993487;28;20030;-77
2022/06/08 08:39:59;;;;;;;4.68;2.30;;;;;;;35.42;23.69;98275.00;4993258;28;20409;-78
2022/06/08 08:42:24;;;;;;;4.97;1.90;;;;;;;35.74;23.50;98268.84;4993127;28;20490;-77
2022/06/08 08:45:11;;;;;;;4.05;1.95;;;;;;;36.01;23.36;98268.19;4977225;28;20076;-77
2022/06/08 08:47:59;;;;;;;6.55;1.67;;;;;;;36.12;23.20;98273.44;4993272;28;20110;-76
2022/06/08 08:50:42;;;;;;;3.08;1.80;;;;;;;36.24;22.87;98265.66;4993041;28;20065;-76
2022/06/08 08:53:28;;;;;;;6.55;1.90;;;;;;;36.43;23.30;98268.34;4960976;28;20512;-77
2022/06/08 08:55:56;;;;;;;;;;;;;;;35.93;23.74;98268.03;4993410;28;20516;-76
2022/06/08 08:58:29;;;;;;;5.47;1.75;;;;;;;35.64;24.04;98283.34;4992534;28;19921;-78
2022/06/08 09:00:59;;;;;;;6.15;1.90;;;;;;;35.88;23.77;98265.41;4975941;28;20034;-76
2022/06/08 09:03:40;;;;;;;9.15;2.20;;;;;;;35.61;24.13;98275.00;4976703;28;20030;-76
2022/06/08 09:06:16;;;;;;;4.63;1.90;;;;;;;35.20;24.57;98268.16;4977302;28;20033;-76
2022/06/08 09:08:43;;;;;;;3.15;1.67;;;;;;;34.95;24.64;98270.09;4992706;28;20478;-77
2022/06/08 09:11:19;;;;;;;6.77;1.87;;;;;;;34.71;25.28;98280.09;4976574;28;20022;-77
2022/06/08 09:13:48;;;;;;;5.30;1.85;;;;;;;34.47;24.99;98258.38;4993271;28;20030;-77
2022/06/08 09:16:24;;;;;;;4.78;1.85;;;;;;;34.23;24.88;98270.78;4992673;28;20398;-78
2022/06/08 09:18:50;;;;;;;5.20;1.33;;;;;;;33.95;25.12;98261.47;4976547;28;20108;-76
2022/06/08 09:21:26;;;;;;;4.43;1.70;;;;;;;33.64;25.59;98266.28;4976550;28;20768;-77
2022/06/08 09:23:54;;;;;;;5.27;1.60;;;;;;;33.38;26.00;98266.41;4977170;28;20074;-78
2022/06/08 09:26:25;;;;;;;;;;;;;;;33.16;26.30;98272.97;4976926;28;20050;-77
2022/06/08 09:29:09;;;;;;;5.25;1.58;;;;;;;32.84;26.62;98267.94;4993499;28;19997;-77
2022/06/08 09:31:35;;;;;;;4.05;1.60;;;;;;;32.61;26.65;98267.41;4993471;28;20105;-77
2022/06/08 09:34:11;;;;;;;3.15;1.65;;;;;;;32.33;27.50;98260.69;4975530;28;20080;-78
2022/06/08 09:36:36;;;;;;;3.28;1.40;;;;;;;32.21;27.10;98262.84;4992647;28;20025;-77
2022/06/08 09:39:02;;;;;;;6.53;1.58;;;;;;;32.07;27.52;98271.47;4993397;28;20023;-78
2022/06/08 09:41:37;;;;;;;3.30;1.80;;;;;;;32.05;27.41;98256.59;4976426;28;20561;-78
2022/06/08 09:44:22;;;;;;;2.38;1.67;;;;;;;32.23;27.31;98261.50;4976334;28;20036;-77
2022/06/08 09:53:21;;;;;;;3.28;1.80;;;;;;;32.92;27.25;98242.22;4978603;28;20038;-78
2022/06/08 09:56:19;;;;;;;3.40;1.83;;;;;;;33.22;26.81;98245.94;4992675;28;20040;-77
2022/06/08 09:58:47;;;;;;;2.97;1.58;;;;;;;33.31;27.10;98244.28;4992316;28;20039;-78
2022/06/08 10:01:35;;;;;;;4.53;1.60;;;;;;;33.52;26.49;98244.97;4992975;28;20033;-78
2022/06/08 10:04:21;;;;;;;4.20;1.85;;;;;;;33.49;26.58;98240.91;4993044;28;20029;-77
2022/06/08 10:07:20;;;;;;;2.67;1.55;;;;;;;33.34;26.61;98235.59;4991916;28;20030;-76
2022/06/08 10:09:54;;;;;;;5.40;1.73;;;;;;;33.20;26.83;98229.97;4933371;29;20039;-77
2022/06/08 10:12:48;;;;;;;3.05;1.60;;;;;;;33.17;26.85;98233.22;4901978;29;20039;-77
2022/06/08 10:15:27;;;;;;;3.30;1.42;;;;;;;32.97;27.47;98239.50;4916735;29;20087;-77
2022/06/08 10:18:19;;;;;;;3.67;1.58;;;;;;;32.77;27.56;98235.00;4917761;29;20039;-77
2022/06/08 10:20:52;;;;;;;2.45;1.48;;;;;;;32.54;28.00;98236.34;4864029;29;20045;-77
2022/06/08 10:23:25;;;;;;;3.17;1.50;;;;;;;32.30;28.17;98231.53;4860969;29;20048;-77
2022/06/08 10:26:19;;;;;;;2.72;1.60;;;;;;;32.06;28.74;98232.03;4860747;29;20045;-77
2022/06/08 10:28:47;;;;;;;6.45;1.73;;;;;;;31.82;28.92;98226.38;4878770;29;20057;-77
2022/06/08 10:31:18;;;;;;;5.40;1.60;;;;;;;31.69;29.17;98232.28;4863901;29;20067;-77
2022/06/08 10:33:48;;;;;;;7.82;1.80;;;;;;;31.52;29.93;98232.50;4876750;29;20187;-76
2022/06/08 10:36:14;;;;;;;3.00;1.48;;;;;;;31.36;30.10;98234.34;4876571;29;20044;-76
2022/06/08 10:38:43;;;;;;;3.63;1.65;;;;;;;31.16;30.73;98235.88;4860615;29;20113;-77
2022/06/08 10:43:59;;;;;;;3.90;1.67;;;;;;;30.85;31.22;98234.91;4876499;29;20081;-77
2022/06/08 10:46:46;;;;;;;2.75;1.80;;;;;;;30.73;31.32;98234.31;4916160;29;20039;-77
2022/06/08 10:49:29;;;;;;;3.70;1.80;;;;;;;30.60;31.30;98230.19;4920879;29;20035;-78
2022/06/08 10:52:20;;;;;;;4.63;1.92;;;;;;;30.54;31.58;98233.94;4936741;29;20515;-77
2022/06/08 10:54:57;;;;;;;4.10;2.00;;;;;;;30.45;31.20;98231.72;4936479;29;20047;-76
2022/06/08 10:57:32;;;;;;;;;;;;;;;30.45;31.21;98231.72;4915021;28;20125;-76
2022/06/08 11:00:28;;;;;;;5.80;2.28;;;;;;;30.34;31.69;98235.38;4996452;28;19921;-76
2022/06/08 11:03:03;;;;;;;5.82;1.90;;;;;;;30.30;31.86;98224.31;4995164;28;20528;-77
2022/06/08 11:05:43;;;;;;;4.25;1.88;;;;;;;30.27;31.74;98219.47;4995200;28;20080;-76
2022/06/08 11:08:12;;;;;;;4.18;1.90;;;;;;;30.22;31.91;98230.19;4962730;28;20552;-77
2022/06/08 11:10:51;;;;;;;3.70;1.70;;;;;;;30.15;32.39;98220.72;4996221;28;20478;-77
2022/06/08 11:13:25;;;;;;;4.13;1.88;;;;;;;30.07;32.06;98230.06;4996326;28;20394;-76
2022/06/08 11:16:12;;;;;;;3.70;1.70;;;;;;;29.95;32.55;98212.22;4994693;28;20120;-76
2022/06/08 11:18:41;;;;;;;4.68;1.70;;;;;;;29.90;32.86;98208.66;4995028;28;20136;-78
2022/06/08 11:21:12;;;;;;;11.98;1.80;;;;;;;29.91;32.78;98204.91;4994745;28;20386;-78
2022/06/08 11:23:41;;;;;;;6.65;1.90;;;;;;;29.93;32.45;98198.19;4994760;28;20128;-77
2022/06/08 11:26:25;;;;;;;5.25;1.90;;;;;;;29.97;32.52;98193.13;4978783;28;20039;-77
2022/06/08 11:28:56;;;;;;;5.78;1.95;;;;;;;30.01;32.65;98202.28;4996488;28;20062;-77
2022/06/08 11:31:27;;;;;;;4.20;1.70;;;;;;;30.01;32.65;98206.88;4979331;28;20052;-76
2022/06/08 11:34:11;;;;;;;3.92;1.60;;;;;;;29.98;32.53;98213.56;4995703;28;20030;-77
2022/06/08 11:36:42;;;;;;;4.35;1.80;;;;;;;29.93;33.01;98213.53;4995806;28;20084;-77
2022/06/08 11:39:37;;;;;;;4.38;1.83;;;;;;;29.90;33.03;98214.88;4995423;28;20085;-77
2022/06/08 11:42:14;;;;;;;5.93;1.98;;;;;;;29.89;33.15;98212.44;4994622;28;20089;-78
2022/06/08 11:44:42;;;;;;;;;;;;;;;29.76;33.29;98206.38;4995959;28;20109;-77
2022/06/08 11:47:11;;;;;;;2.85;1.67;;;;;;;29.71;33.07;98200.13;4994417;28;19932;-77
2022/06/08 11:49:44;;;;;;;4.95;1.90;;;;;;;29.51;33.25;98214.16;4995864;28;20034;-77
2022/06/08 11:52:24;;;;;;;2.53;1.60;;;;;;;29.47;33.13;98205.81;4961830;28;20038;-77
2022/06/08 11:55:20;;;;;;;3.22;1.80;;;;;;;29.42;33.10;98200.38;4994267;28;20500;-76
2022/06/08 11:57:58;;;;;;;5.05;1.90;;;;;;;29.37;33.04;98208.41;4935187;29;20078;-77
2022/06/08 12:00:34;;;;;;;4.15;1.80;;;;;;;29.29;33.48;98206.97;4935348;29;20035;-77
2022/06/08 12:03:16;;;;;;;5.57;2.10;;;;;;;29.18;33.91;98208.69;4919367;29;20064;-76